createdAt,value
2023-03-30T00:00:20.000Z,0
2023-03-30T00:01:37.000Z,0
2023-03-30T00:02:53.000Z,0
2023-03-30T00:04:09.000Z,0
2023-03-30T00:05:25.000Z,0
2023-03-30T00:06:41.000Z,0
2023-03-30T00:07:58.000Z,0
2023-03-30T00:09:14.000Z,0
2023-03-30T00:10:30.000Z,0
2023-03-30T00:11:45.000Z,0
2023-03-30T00:13:01.000Z,0
2023-03-30T00:14:18.000Z,0
2023-03-30T00:15:34.000Z,0
2023-03-30T00:16:50.000Z,0
2023-03-30T00:18:06.000Z,0
2023-03-30T00:19:22.000Z,0
2023-03-30T00:20:38.000Z,0
2023-03-30T00:21:55.000Z,0
2023-03-30T00:23:11.000Z,0
2023-03-30T00:24:27.000Z,0
2023-03-30T00:25:43.000Z,0
2023-03-30T00:26:59.000Z,0
2023-03-30T00:28:15.000Z,0
2023-03-30T00:29:31.000Z,0
2023-03-30T00:30:47.000Z,0
2023-03-30T00:32:03.000Z,0
2023-03-30T00:33:19.000Z,0
2023-03-30T00:34:36.000Z,0
2023-03-30T00:35:52.000Z,0
2023-03-30T00:37:08.000Z,0
2023-03-30T00:38:24.000Z,0
2023-03-30T00:39:40.000Z,0
2023-03-30T00:40:56.000Z,0
2023-03-30T00:42:13.000Z,0
2023-03-30T00:43:29.000Z,0
2023-03-30T00:44:44.000Z,0
2023-03-30T00:46:00.000Z,0
2023-03-30T00:47:16.000Z,0
2023-03-30T00:48:33.000Z,0
2023-03-30T00:49:49.000Z,0
2023-03-30T00:51:05.000Z,0
2023-03-30T00:52:21.000Z,0
2023-03-30T00:53:37.000Z,0
2023-03-30T00:54:54.000Z,0
2023-03-30T00:56:10.000Z,0
2023-03-30T00:57:26.000Z,0
2023-03-30T00:58:42.000Z,0
2023-03-30T00:59:58.000Z,0
2023-03-30T01:01:14.000Z,0
2023-03-30T01:02:30.000Z,0
2023-03-30T01:03:46.000Z,0
2023-03-30T01:05:02.000Z,0
2023-03-30T01:06:18.000Z,0
2023-03-30T01:07:34.000Z,0
2023-03-30T01:08:51.000Z,0
2023-03-30T01:10:07.000Z,0
2023-03-30T01:11:23.000Z,0
2023-03-30T01:12:39.000Z,0
2023-03-30T01:13:55.000Z,0
2023-03-30T01:15:12.000Z,0
2023-03-30T01:16:28.000Z,0
2023-03-30T01:17:43.000Z,0
2023-03-30T01:18:59.000Z,0
2023-03-30T01:20:15.000Z,0
2023-03-30T01:21:32.000Z,0
2023-03-30T01:22:48.000Z,0
2023-03-30T01:24:04.000Z,0
2023-03-30T01:25:20.000Z,0
2023-03-30T01:26:36.000Z,0
2023-03-30T01:27:53.000Z,0
2023-03-30T01:29:09.000Z,0
2023-03-30T01:30:25.000Z,0
2023-03-30T01:31:41.000Z,0
2023-03-30T01:32:57.000Z,0
2023-03-30T01:34:12.000Z,0
2023-03-30T01:35:29.000Z,0
2023-03-30T01:36:45.000Z,0
2023-03-30T01:38:01.000Z,0
2023-03-30T01:39:17.000Z,0
2023-03-30T01:40:33.000Z,0
2023-03-30T01:41:50.000Z,0
2023-03-30T01:43:06.000Z,0
2023-03-30T01:44:22.000Z,0
2023-03-30T01:45:38.000Z,0
2023-03-30T01:46:54.000Z,0
2023-03-30T01:48:11.000Z,0
2023-03-30T01:49:27.000Z,0
2023-03-30T01:50:42.000Z,0
2023-03-30T01:51:58.000Z,0
2023-03-30T01:53:14.000Z,0
2023-03-30T01:54:31.000Z,0
2023-03-30T01:55:47.000Z,0
2023-03-30T01:57:03.000Z,0
2023-03-30T01:58:19.000Z,0
2023-03-30T01:59:35.000Z,0
2023-03-30T02:00:51.000Z,0
2023-03-30T02:02:08.000Z,0
2023-03-30T02:03:24.000Z,0
2023-03-30T02:04:40.000Z,0
2023-03-30T02:05:56.000Z,0
2023-03-30T02:07:11.000Z,0
2023-03-30T02:08:28.000Z,0
2023-03-30T02:09:44.000Z,0
2023-03-30T02:11:00.000Z,0
2023-03-30T02:12:16.000Z,0
2023-03-30T02:13:32.000Z,0
2023-03-30T02:14:49.000Z,0
2023-03-30T02:16:05.000Z,0
2023-03-30T02:17:21.000Z,0
2023-03-30T02:18:37.000Z,0
2023-03-30T02:19:53.000Z,0
2023-03-30T02:21:10.000Z,0
2023-03-30T02:22:26.000Z,0
2023-03-30T02:23:41.000Z,0
2023-03-30T02:24:57.000Z,0
2023-03-30T02:26:13.000Z,0
2023-03-30T02:27:29.000Z,0
2023-03-30T02:28:46.000Z,0
2023-03-30T02:30:02.000Z,0
2023-03-30T02:31:18.000Z,0
2023-03-30T02:32:34.000Z,0
2023-03-30T02:33:50.000Z,0
2023-03-30T02:35:07.000Z,0
2023-03-30T02:36:23.000Z,0
2023-03-30T02:37:39.000Z,0
2023-03-30T02:38:55.000Z,0
2023-03-30T02:40:10.000Z,0
2023-03-30T02:41:27.000Z,0
2023-03-30T02:42:43.000Z,0
2023-03-30T02:43:59.000Z,0
2023-03-30T02:45:15.000Z,0
2023-03-30T02:46:31.000Z,0
2023-03-30T02:47:47.000Z,0
2023-03-30T02:49:04.000Z,0
2023-03-30T02:50:20.000Z,0
2023-03-30T02:51:36.000Z,0
2023-03-30T02:52:52.000Z,0
2023-03-30T02:54:08.000Z,0
2023-03-30T02:55:25.000Z,0
2023-03-30T02:56:40.000Z,0
2023-03-30T02:57:56.000Z,0
2023-03-30T02:59:12.000Z,0
2023-03-30T03:00:28.000Z,0
2023-03-30T03:01:45.000Z,0
2023-03-30T03:03:01.000Z,0
2023-03-30T03:04:17.000Z,0
2023-03-30T03:05:33.000Z,0
2023-03-30T03:06:49.000Z,0
2023-03-30T03:08:06.000Z,0
2023-03-30T03:09:22.000Z,0
2023-03-30T03:10:38.000Z,0
2023-03-30T03:11:54.000Z,0
2023-03-30T03:13:09.000Z,0
2023-03-30T03:14:25.000Z,0
2023-03-30T03:15:42.000Z,0
2023-03-30T03:16:58.000Z,0
2023-03-30T03:18:14.000Z,0
2023-03-30T03:19:30.000Z,0
2023-03-30T03:20:46.000Z,0
2023-03-30T03:22:03.000Z,0
2023-03-30T03:23:19.000Z,0
2023-03-30T03:24:35.000Z,0
2023-03-30T03:25:51.000Z,0
2023-03-30T03:27:07.000Z,0
2023-03-30T03:28:24.000Z,0
2023-03-30T03:29:39.000Z,0
2023-03-30T03:30:55.000Z,0
2023-03-30T03:32:11.000Z,0
2023-03-30T03:33:27.000Z,0
2023-03-30T03:34:44.000Z,0
2023-03-30T03:36:00.000Z,0
2023-03-30T03:37:15.000Z,0
2023-03-30T03:38:31.000Z,0
2023-03-30T03:39:47.000Z,0
2023-03-30T03:41:03.000Z,0
2023-03-30T03:42:20.000Z,0
2023-03-30T03:43:36.000Z,0
2023-03-30T03:44:52.000Z,0
2023-03-30T03:46:08.000Z,0
2023-03-30T03:47:24.000Z,0
2023-03-30T03:48:41.000Z,0
2023-03-30T03:49:57.000Z,0
2023-03-30T03:51:13.000Z,0
2023-03-30T03:52:29.000Z,0
2023-03-30T03:53:44.000Z,0
2023-03-30T03:55:01.000Z,0
2023-03-30T03:56:17.000Z,0
2023-03-30T03:57:33.000Z,0
2023-03-30T04:00:05.000Z,0
2023-03-30T04:01:22.000Z,0
2023-03-30T04:02:38.000Z,0
2023-03-30T04:03:54.000Z,0
2023-03-30T04:05:10.000Z,0
2023-03-30T04:06:26.000Z,0
2023-03-30T04:07:42.000Z,0
2023-03-30T04:08:59.000Z,0
2023-03-30T04:10:14.000Z,0
2023-03-30T04:11:30.000Z,0
2023-03-30T04:12:46.000Z,0
2023-03-30T04:14:02.000Z,0
2023-03-30T04:15:19.000Z,0
2023-03-30T04:16:35.000Z,0
2023-03-30T04:17:51.000Z,0
2023-03-30T04:19:07.000Z,0
2023-03-30T04:20:23.000Z,0
2023-03-30T04:21:40.000Z,0
2023-03-30T04:22:56.000Z,0
2023-03-30T04:24:12.000Z,0
2023-03-30T04:25:28.000Z,0
2023-03-30T04:26:43.000Z,0
2023-03-30T04:28:00.000Z,0
2023-03-30T04:29:16.000Z,0
2023-03-30T04:30:32.000Z,0
2023-03-30T04:31:48.000Z,0
2023-03-30T04:33:04.000Z,0
2023-03-30T04:34:20.000Z,0
2023-03-30T04:35:37.000Z,0
2023-03-30T04:36:53.000Z,0
2023-03-30T04:38:09.000Z,0
2023-03-30T04:39:25.000Z,0
2023-03-30T04:40:41.000Z,0
2023-03-30T04:41:58.000Z,4
2023-03-30T04:43:13.000Z,4
2023-03-30T04:44:29.000Z,4
2023-03-30T04:45:45.000Z,4
2023-03-30T04:47:01.000Z,4
2023-03-30T04:48:18.000Z,4
2023-03-30T04:49:34.000Z,8
2023-03-30T04:50:50.000Z,8
2023-03-30T04:52:06.000Z,8
2023-03-30T04:53:22.000Z,12
2023-03-30T04:54:39.000Z,20
2023-03-30T04:55:55.000Z,20
2023-03-30T04:57:11.000Z,24
2023-03-30T04:58:27.000Z,28
2023-03-30T04:59:42.000Z,36
2023-03-30T05:00:58.000Z,48
2023-03-30T05:02:15.000Z,64
2023-03-30T05:03:31.000Z,76
2023-03-30T05:04:47.000Z,88
2023-03-30T05:06:03.648Z,100
2023-03-30T05:07:19.000Z,100
2023-03-30T05:08:36.000Z,112
2023-03-30T05:09:52.000Z,120
2023-03-30T05:11:08.000Z,132
2023-03-30T05:12:24.000Z,152
2023-03-30T05:13:40.000Z,180
2023-03-30T05:14:57.000Z,208
2023-03-30T05:16:12.000Z,248
2023-03-30T05:17:28.000Z,288
2023-03-30T05:18:44.000Z,340
2023-03-30T05:20:00.000Z,380
2023-03-30T05:21:17.000Z,400
2023-03-30T05:22:33.000Z,412
2023-03-30T05:23:49.000Z,428
2023-03-30T05:25:05.000Z,416
2023-03-30T05:26:21.000Z,428
2023-03-30T05:27:37.000Z,440
2023-03-30T05:28:54.000Z,456
2023-03-30T05:30:10.000Z,484
2023-03-30T05:31:26.000Z,520
2023-03-30T05:32:41.000Z,524
2023-03-30T05:33:57.000Z,556
2023-03-30T05:35:14.000Z,604
2023-03-30T05:36:30.000Z,652
2023-03-30T05:37:46.000Z,728
2023-03-30T05:39:02.000Z,784
2023-03-30T05:40:18.000Z,832
2023-03-30T05:41:35.000Z,904
2023-03-30T05:42:51.000Z,956
2023-03-30T05:44:07.000Z,984
2023-03-30T05:45:23.000Z,1036
2023-03-30T05:46:39.000Z,1036
2023-03-30T05:47:55.000Z,1052
2023-03-30T05:49:11.000Z,1084
2023-03-30T05:50:27.000Z,1200
2023-03-30T05:51:43.000Z,1340
2023-03-30T05:52:59.000Z,1500
2023-03-30T05:54:15.000Z,1452
2023-03-30T05:55:32.000Z,1440
2023-03-30T05:56:48.000Z,1392
2023-03-30T05:58:04.000Z,1420
2023-03-30T05:59:20.000Z,1328
2023-03-30T06:00:36.000Z,1100
2023-03-30T06:01:53.000Z,1004
2023-03-30T06:03:09.000Z,968
2023-03-30T06:04:25.000Z,948
2023-03-30T06:05:40.000Z,900
2023-03-30T06:06:56.000Z,868
2023-03-30T06:08:13.000Z,940
2023-03-30T06:09:29.000Z,940
2023-03-30T06:10:45.000Z,956
2023-03-30T06:12:01.000Z,1032
2023-03-30T06:13:17.000Z,1404
2023-03-30T06:14:33.000Z,1956
2023-03-30T06:15:50.000Z,2292
2023-03-30T06:17:06.000Z,2696
2023-03-30T06:18:22.000Z,2548
2023-03-30T06:19:38.000Z,2456
2023-03-30T06:20:54.000Z,2816
2023-03-30T06:22:10.000Z,3148
2023-03-30T06:23:26.000Z,3372
2023-03-30T06:24:42.000Z,3436
2023-03-30T06:25:58.000Z,3404
2023-03-30T06:27:14.000Z,3536
2023-03-30T06:28:31.000Z,3808
2023-03-30T06:29:47.000Z,4036
2023-03-30T06:31:03.000Z,3916
2023-03-30T06:32:19.000Z,3780
2023-03-30T06:33:35.000Z,4212
2023-03-30T06:34:52.000Z,4400
2023-03-30T06:36:08.000Z,4500
2023-03-30T06:37:24.000Z,4240
2023-03-30T06:38:39.000Z,2940
2023-03-30T06:39:55.000Z,3396
2023-03-30T06:41:12.000Z,4484
2023-03-30T06:42:28.000Z,3960
2023-03-30T06:43:44.000Z,3520
2023-03-30T06:45:00.000Z,2556
2023-03-30T06:46:16.000Z,2692
2023-03-30T06:47:32.000Z,2996
2023-03-30T06:48:49.000Z,3384
2023-03-30T06:50:05.000Z,4412
2023-03-30T06:51:21.000Z,3248
2023-03-30T06:52:37.000Z,3696
2023-03-30T06:53:53.000Z,4212
2023-03-30T06:55:09.000Z,4636
2023-03-30T06:56:25.000Z,4368
2023-03-30T06:57:41.000Z,4096
2023-03-30T06:58:57.000Z,4468
2023-03-30T07:00:13.000Z,5536
2023-03-30T07:01:30.000Z,5288
2023-03-30T07:02:46.000Z,5576
2023-03-30T07:04:02.000Z,5208
2023-03-30T07:05:18.000Z,5296
2023-03-30T07:06:34.000Z,5224
2023-03-30T07:07:51.000Z,3404
2023-03-30T07:09:07.000Z,6772
2023-03-30T07:10:23.000Z,2268
2023-03-30T07:11:38.000Z,1948
2023-03-30T07:12:54.000Z,1720
2023-03-30T07:14:10.000Z,1700
2023-03-30T07:15:27.000Z,1884
2023-03-30T07:16:43.000Z,2080
2023-03-30T07:17:59.000Z,2556
2023-03-30T07:19:15.000Z,2808
2023-03-30T07:20:31.000Z,2556
2023-03-30T07:21:48.000Z,2748
2023-03-30T07:23:04.000Z,3192
2023-03-30T07:24:20.000Z,3748
2023-03-30T07:25:36.000Z,4212
2023-03-30T07:26:52.000Z,5068
2023-03-30T07:28:08.000Z,5952
2023-03-30T07:29:24.000Z,5488
2023-03-30T07:30:40.000Z,5168
2023-03-30T07:31:56.000Z,4568
2023-03-30T07:33:12.000Z,3632
2023-03-30T07:34:29.000Z,3188
2023-03-30T07:35:45.000Z,2992
2023-03-30T07:37:01.000Z,2624
2023-03-30T07:38:17.000Z,2644
2023-03-30T07:39:33.000Z,2696
2023-03-30T07:40:49.000Z,2504
2023-03-30T07:42:06.000Z,3120
2023-03-30T07:43:22.000Z,3448
2023-03-30T07:44:37.000Z,4712
2023-03-30T07:45:53.000Z,7420
2023-03-30T07:47:09.000Z,9668
2023-03-30T07:48:26.000Z,8956
2023-03-30T07:49:42.000Z,8608
2023-03-30T07:50:58.000Z,9332
2023-03-30T07:52:13.000Z,10592
2023-03-30T07:53:29.000Z,11156
2023-03-30T07:54:46.000Z,10484
2023-03-30T07:56:02.000Z,7888
2023-03-30T07:57:18.000Z,4380
2023-03-30T07:58:34.000Z,3256
2023-03-30T07:59:50.000Z,2836
2023-03-30T08:01:07.000Z,2660
2023-03-30T08:02:23.000Z,2416
2023-03-30T08:03:39.000Z,3064
2023-03-30T08:04:55.000Z,4112
2023-03-30T08:06:11.000Z,5296
2023-03-30T08:07:28.000Z,6624
2023-03-30T08:08:43.000Z,7160
2023-03-30T08:09:59.000Z,7072
2023-03-30T08:11:15.000Z,7120
2023-03-30T08:12:31.000Z,7632
2023-03-30T08:13:47.000Z,7536
2023-03-30T08:15:04.000Z,7480
2023-03-30T08:16:20.000Z,8140
2023-03-30T08:17:36.000Z,8752
2023-03-30T08:18:52.000Z,7772
2023-03-30T08:20:08.000Z,5804
2023-03-30T08:21:25.000Z,3964
2023-03-30T08:22:41.000Z,3108
2023-03-30T08:23:57.000Z,3900
2023-03-30T08:25:12.000Z,3048
2023-03-30T08:26:28.000Z,1592
2023-03-30T08:27:45.000Z,1036
2023-03-30T08:29:01.000Z,1492
2023-03-30T08:30:17.000Z,1920
2023-03-30T08:31:33.000Z,2492
2023-03-30T08:32:49.000Z,2868
2023-03-30T08:34:06.000Z,2828
2023-03-30T08:35:22.000Z,3120
2023-03-30T08:36:38.000Z,3448
2023-03-30T08:37:54.000Z,3068
2023-03-30T08:39:10.000Z,2792
2023-03-30T08:40:26.000Z,2620
2023-03-30T08:41:42.000Z,2932
2023-03-30T08:42:58.000Z,3404
2023-03-30T08:44:14.000Z,4544
2023-03-30T08:45:30.000Z,6476
2023-03-30T08:46:46.000Z,8392
2023-03-30T08:48:03.000Z,9572
2023-03-30T08:49:19.000Z,8928
2023-03-30T08:50:35.000Z,8996
2023-03-30T08:51:51.000Z,8152
2023-03-30T08:53:07.000Z,7240
2023-03-30T08:54:24.000Z,5980
2023-03-30T08:55:40.000Z,5564
2023-03-30T08:56:56.000Z,5700
2023-03-30T08:58:11.000Z,7232
2023-03-30T08:59:27.000Z,8716
2023-03-30T09:00:44.000Z,7792
2023-03-30T09:02:00.000Z,9624
2023-03-30T09:03:16.000Z,22560
2023-03-30T09:04:32.000Z,13944
2023-03-30T09:05:48.000Z,10796
2023-03-30T09:07:05.000Z,9360
2023-03-30T09:08:21.000Z,11364
2023-03-30T09:09:37.000Z,14784
2023-03-30T09:10:53.000Z,15160
2023-03-30T09:12:09.000Z,14608
2023-03-30T09:13:25.000Z,6836
2023-03-30T09:14:41.000Z,5048
2023-03-30T09:15:57.000Z,4916
2023-03-30T09:17:13.000Z,4892
2023-03-30T09:18:29.000Z,4784
2023-03-30T09:19:45.000Z,4708
2023-03-30T09:21:02.000Z,4696
2023-03-30T09:22:18.000Z,4660
2023-03-30T09:23:34.000Z,4740
2023-03-30T09:24:50.000Z,4692
2023-03-30T09:26:06.000Z,4744
2023-03-30T09:27:23.000Z,4876
2023-03-30T09:28:39.000Z,4928
2023-03-30T09:29:55.000Z,5280
2023-03-30T09:31:10.000Z,6020
2023-03-30T09:32:26.000Z,7204
2023-03-30T09:33:43.000Z,9196
2023-03-30T09:34:59.000Z,9612
2023-03-30T09:36:15.000Z,10492
2023-03-30T09:37:31.000Z,8536
2023-03-30T09:38:47.000Z,10304
2023-03-30T09:40:03.000Z,11560
2023-03-30T09:41:20.000Z,8272
2023-03-30T09:42:36.000Z,12536
2023-03-30T09:43:52.000Z,10040
2023-03-30T09:45:08.000Z,12076
2023-03-30T09:46:24.000Z,8212
2023-03-30T09:47:40.000Z,8652
2023-03-30T09:48:56.000Z,11036
2023-03-30T09:50:12.000Z,12076
2023-03-30T09:51:28.000Z,16540
2023-03-30T09:52:44.000Z,18944
2023-03-30T09:54:01.000Z,18688
2023-03-30T09:55:17.000Z,15536
2023-03-30T09:56:33.000Z,17216
2023-03-30T09:57:49.000Z,13008
2023-03-30T09:59:05.000Z,9988
2023-03-30T10:00:22.000Z,11408
2023-03-30T10:01:38.000Z,15156
2023-03-30T10:02:54.000Z,22176
2023-03-30T10:04:09.000Z,19616
2023-03-30T10:05:25.000Z,14544
2023-03-30T10:06:42.000Z,13756
2023-03-30T10:07:58.000Z,12212
2023-03-30T10:09:14.000Z,12336
2023-03-30T10:10:30.000Z,13476
2023-03-30T10:11:46.000Z,11512
2023-03-30T10:13:02.000Z,11004
2023-03-30T10:14:19.000Z,9948
2023-03-30T10:15:35.000Z,24224
2023-03-30T10:16:51.000Z,33440
2023-03-30T10:19:23.000Z,24832
2023-03-30T10:20:39.000Z,18368
2023-03-30T10:21:55.000Z,19072
2023-03-30T10:23:11.000Z,16000
2023-03-30T10:24:27.000Z,16444
2023-03-30T10:25:43.000Z,29824
2023-03-30T10:27:00.000Z,16748
2023-03-30T10:28:16.000Z,16828
2023-03-30T10:29:32.000Z,12920
2023-03-30T10:30:48.000Z,12476
2023-03-30T10:32:04.000Z,11068
2023-03-30T10:33:21.000Z,12364
2023-03-30T10:34:37.000Z,16880
2023-03-30T10:35:53.000Z,26816
2023-03-30T10:37:08.000Z,38848
2023-03-30T10:38:24.000Z,14400
2023-03-30T10:39:40.000Z,40864
2023-03-30T10:40:57.000Z,46336
2023-03-30T10:42:13.000Z,52960
2023-03-30T10:43:29.000Z,38240
2023-03-30T10:44:45.000Z,57536
2023-03-30T10:46:01.000Z,58432
2023-03-30T10:47:18.000Z,34720
2023-03-30T10:48:34.000Z,36928
2023-03-30T10:49:50.000Z,19744
2023-03-30T10:51:06.000Z,23200
2023-03-30T10:52:22.000Z,26272
2023-03-30T10:53:38.000Z,21888
2023-03-30T10:54:54.000Z,16756
2023-03-30T10:56:10.000Z,12128
2023-03-30T10:57:26.000Z,7340
2023-03-30T10:58:42.000Z,6060
2023-03-30T10:59:59.000Z,4688
2023-03-30T11:01:15.000Z,4220
2023-03-30T11:02:31.000Z,5568
2023-03-30T11:03:47.000Z,5296
2023-03-30T11:05:03.000Z,5124
2023-03-30T11:06:20.000Z,5848
2023-03-30T11:07:36.000Z,7452
2023-03-30T11:08:52.000Z,7320
2023-03-30T11:10:07.000Z,7620
2023-03-30T11:11:23.000Z,9592
2023-03-30T11:12:39.000Z,21408
2023-03-30T11:13:56.000Z,14776
2023-03-30T11:15:12.000Z,19232
2023-03-30T11:16:28.000Z,19392
2023-03-30T11:17:44.000Z,30400
2023-03-30T11:19:00.000Z,46080
2023-03-30T11:20:17.000Z,39968
2023-03-30T11:21:33.000Z,19808
2023-03-30T11:22:49.000Z,18272
2023-03-30T11:24:05.000Z,21984
2023-03-30T11:25:21.000Z,30336
2023-03-30T11:26:37.000Z,16160
2023-03-30T11:27:53.000Z,16044
2023-03-30T11:29:09.000Z,16652
2023-03-30T11:30:25.000Z,16680
2023-03-30T11:31:41.000Z,13228
2023-03-30T11:32:58.000Z,12388
2023-03-30T11:34:14.000Z,11496
2023-03-30T11:35:30.000Z,10708
2023-03-30T11:36:46.000Z,10660
2023-03-30T11:38:02.000Z,10516
2023-03-30T11:39:18.000Z,11740
2023-03-30T11:40:35.000Z,14088
2023-03-30T11:41:51.000Z,12540
2023-03-30T11:43:06.000Z,11608
2023-03-30T11:44:22.000Z,10680
2023-03-30T11:45:38.000Z,11016
2023-03-30T11:46:55.000Z,9448
2023-03-30T11:48:11.000Z,12516
2023-03-30T11:49:27.484Z,16096
2023-03-30T11:50:43.000Z,19680
2023-03-30T11:51:59.000Z,18432
2023-03-30T11:53:16.000Z,24352
2023-03-30T11:54:32.000Z,18400
2023-03-30T11:55:48.000Z,20992
2023-03-30T11:57:04.000Z,13064
2023-03-30T11:58:20.000Z,11048
2023-03-30T11:59:36.000Z,9572
2023-03-30T12:00:52.000Z,14716
2023-03-30T12:02:08.000Z,12608
2023-03-30T12:03:24.000Z,12572
2023-03-30T12:04:40.000Z,12752
2023-03-30T12:05:57.000Z,12468
2023-03-30T12:07:12.000Z,11416
2023-03-30T12:08:28.000Z,8332
2023-03-30T12:09:44.000Z,7940
2023-03-30T12:11:00.000Z,9104
2023-03-30T12:12:16.000Z,16916
2023-03-30T12:13:33.000Z,37120
2023-03-30T12:14:49.000Z,51168
2023-03-30T12:16:05.000Z,57312
2023-03-30T12:17:21.000Z,47392
2023-03-30T12:18:37.000Z,30336
2023-03-30T12:19:54.000Z,43104
2023-03-30T12:21:10.000Z,31744
2023-03-30T12:22:26.000Z,23072
2023-03-30T12:23:41.000Z,16444
2023-03-30T12:24:57.000Z,23296
2023-03-30T12:26:14.000Z,23232
2023-03-30T12:27:30.000Z,18592
2023-03-30T12:28:46.000Z,14536
2023-03-30T12:30:02.000Z,10420
2023-03-30T12:31:18.000Z,9764
2023-03-30T12:32:35.000Z,12120
2023-03-30T12:33:51.000Z,16992
2023-03-30T12:35:07.000Z,51296
2023-03-30T12:36:23.000Z,41824
2023-03-30T12:37:39.000Z,20544
2023-03-30T12:38:55.000Z,25696
2023-03-30T12:40:11.000Z,28576
2023-03-30T12:41:27.000Z,33280
2023-03-30T12:42:43.000Z,50432
2023-03-30T12:43:59.000Z,62656
2023-03-30T12:45:15.000Z,64800
2023-03-30T12:46:32.000Z,59904
2023-03-30T12:47:48.000Z,54080
2023-03-30T12:49:04.000Z,23680
2023-03-30T12:50:20.000Z,7612
2023-03-30T12:51:36.000Z,16624
2023-03-30T12:52:53.000Z,40736
2023-03-30T12:54:09.000Z,16628
2023-03-30T12:55:25.000Z,21472
2023-03-30T12:56:40.000Z,27808
2023-03-30T12:57:56.000Z,13656
2023-03-30T12:59:13.000Z,12048
2023-03-30T13:00:29.000Z,8244
2023-03-30T13:01:45.000Z,7100
2023-03-30T13:03:01.000Z,5964
2023-03-30T13:04:17.000Z,4824
2023-03-30T13:05:34.000Z,4276
2023-03-30T13:06:50.000Z,3852
2023-03-30T13:08:06.000Z,3608
2023-03-30T13:09:22.000Z,4044
2023-03-30T13:10:38.000Z,4868
2023-03-30T13:11:54.000Z,6164
2023-03-30T13:13:10.000Z,22688
2023-03-30T13:14:26.000Z,35296
2023-03-30T13:15:42.000Z,61184
2023-03-30T13:16:58.000Z,20000
2023-03-30T13:18:14.000Z,31136
2023-03-30T13:19:31.000Z,33536
2023-03-30T13:20:47.000Z,15444
2023-03-30T13:22:03.000Z,30112
2023-03-30T13:23:19.000Z,14936
2023-03-30T13:24:35.000Z,10464
2023-03-30T13:25:52.000Z,9884
2023-03-30T13:27:08.000Z,11876
2023-03-30T13:28:24.000Z,12644
2023-03-30T13:29:39.000Z,14232
2023-03-30T13:30:55.000Z,18432
2023-03-30T13:32:12.000Z,20992
2023-03-30T13:33:28.000Z,34080
2023-03-30T13:34:44.000Z,45088
2023-03-30T13:36:00.000Z,31776
2023-03-30T13:37:16.000Z,20224
2023-03-30T13:38:33.000Z,48608
2023-03-30T13:39:49.000Z,37440
2023-03-30T13:41:05.000Z,24064
2023-03-30T13:42:21.000Z,16020
2023-03-30T13:43:37.000Z,16356
2023-03-30T13:44:53.000Z,22016
2023-03-30T13:46:09.000Z,15900
2023-03-30T13:47:25.000Z,13864
2023-03-30T13:48:41.000Z,12460
2023-03-30T13:49:57.000Z,12156
2023-03-30T13:51:13.000Z,10948
2023-03-30T13:52:30.000Z,9748
2023-03-30T13:53:46.000Z,8320
2023-03-30T13:55:02.000Z,7188
2023-03-30T13:56:18.000Z,6392
2023-03-30T13:57:34.000Z,5236
2023-03-30T13:58:51.000Z,4140
2023-03-30T14:00:07.000Z,3356
2023-03-30T14:01:23.000Z,2924
2023-03-30T14:02:38.000Z,2196
2023-03-30T14:03:54.000Z,1740
2023-03-30T14:05:11.000Z,1232
2023-03-30T14:06:27.000Z,900
2023-03-30T14:07:43.000Z,956
2023-03-30T14:08:59.000Z,1408
2023-03-30T14:10:15.000Z,2484
2023-03-30T14:11:31.000Z,4420
2023-03-30T14:12:48.000Z,6396
2023-03-30T14:14:04.000Z,6632
2023-03-30T14:15:20.000Z,4892
2023-03-30T14:16:36.000Z,3100
2023-03-30T14:17:52.000Z,3068
2023-03-30T14:19:08.000Z,4316
2023-03-30T14:20:24.000Z,5344
2023-03-30T14:21:40.000Z,7236
2023-03-30T14:22:56.000Z,10904
2023-03-30T14:24:12.000Z,14704
2023-03-30T14:25:29.000Z,18560
2023-03-30T14:26:45.000Z,27904
2023-03-30T14:28:01.000Z,29088
2023-03-30T14:29:17.000Z,24256
2023-03-30T14:30:33.000Z,26784
2023-03-30T14:31:50.000Z,34560
2023-03-30T14:33:06.000Z,28256
2023-03-30T14:34:22.000Z,37760
2023-03-30T14:35:37.000Z,32384
2023-03-30T14:36:53.000Z,31264
2023-03-30T14:38:10.000Z,27072
2023-03-30T14:39:26.000Z,25760
2023-03-30T14:40:42.000Z,19520
2023-03-30T14:41:58.000Z,20896
2023-03-30T14:43:14.000Z,24320
2023-03-30T14:44:30.000Z,33376
2023-03-30T14:45:47.000Z,25536
2023-03-30T14:47:03.000Z,41920
2023-03-30T14:48:19.000Z,40768
2023-03-30T14:49:35.000Z,39744
2023-03-30T14:50:51.000Z,36768
2023-03-30T14:52:07.000Z,39008
2023-03-30T14:53:23.000Z,29728
2023-03-30T14:54:39.000Z,29024
2023-03-30T14:55:55.000Z,33600
2023-03-30T14:57:11.000Z,35392
2023-03-30T14:58:28.000Z,33984
2023-03-30T14:59:44.000Z,34080
2023-03-30T15:01:00.000Z,32000
2023-03-30T15:02:16.000Z,12504
2023-03-30T15:03:32.000Z,10488
2023-03-30T15:04:49.000Z,17536
2023-03-30T15:06:05.000Z,17728
2023-03-30T15:07:21.000Z,26848
2023-03-30T15:08:36.000Z,25024
2023-03-30T15:09:52.000Z,13856
2023-03-30T15:11:08.000Z,11876
2023-03-30T15:12:25.000Z,11692
2023-03-30T15:13:41.000Z,10644
2023-03-30T15:14:57.000Z,10092
2023-03-30T15:16:13.000Z,9012
2023-03-30T15:17:29.000Z,7604
2023-03-30T15:18:46.000Z,5912
2023-03-30T15:20:02.000Z,5316
2023-03-30T15:21:18.000Z,5340
2023-03-30T15:22:34.000Z,5728
2023-03-30T15:23:50.000Z,7276
2023-03-30T15:25:06.000Z,12548
2023-03-30T15:26:22.000Z,20544
2023-03-30T15:27:38.000Z,16864
2023-03-30T15:28:54.000Z,21376
2023-03-30T15:30:10.000Z,12104
2023-03-30T15:31:27.000Z,18752
2023-03-30T15:32:43.000Z,7928
2023-03-30T15:33:59.000Z,7612
2023-03-30T15:35:15.000Z,6904
2023-03-30T15:36:31.000Z,7376
2023-03-30T15:37:48.000Z,6792
2023-03-30T15:39:04.000Z,6508
2023-03-30T15:40:20.000Z,5068
2023-03-30T15:41:35.000Z,4836
2023-03-30T15:42:51.000Z,4772
2023-03-30T15:44:07.000Z,4452
2023-03-30T15:45:24.000Z,4508
2023-03-30T15:46:40.000Z,5212
2023-03-30T15:47:56.000Z,5560
2023-03-30T15:49:12.000Z,4996
2023-03-30T15:50:28.000Z,4580
2023-03-30T15:51:45.000Z,8216
2023-03-30T15:53:01.000Z,10344
2023-03-30T15:54:17.000Z,15328
2023-03-30T15:55:33.000Z,14124
2023-03-30T15:56:49.000Z,7488
2023-03-30T15:58:05.000Z,3156
2023-03-30T15:59:21.000Z,2464
2023-03-30T16:00:37.000Z,2188
2023-03-30T16:01:53.000Z,2044
2023-03-30T16:03:09.000Z,1940
2023-03-30T16:04:26.000Z,1860
2023-03-30T16:05:42.000Z,1964
2023-03-30T16:06:58.000Z,2216
2023-03-30T16:08:14.000Z,2608
2023-03-30T16:09:30.000Z,2308
2023-03-30T16:10:46.000Z,2368
2023-03-30T16:12:03.000Z,2372
2023-03-30T16:13:19.000Z,2196
2023-03-30T16:14:34.000Z,1608
2023-03-30T16:15:50.000Z,1268
2023-03-30T16:17:06.000Z,1748
2023-03-30T16:18:23.000Z,2380
2023-03-30T16:19:39.000Z,2932
2023-03-30T16:20:55.000Z,3588
2023-03-30T16:22:10.000Z,3788
2023-03-30T16:23:26.000Z,4088
2023-03-30T16:24:43.000Z,4772
2023-03-30T16:25:59.000Z,5420
2023-03-30T16:27:15.000Z,8716
2023-03-30T16:28:31.000Z,9484
2023-03-30T16:29:47.000Z,9516
2023-03-30T16:31:04.000Z,10792
2023-03-30T16:32:20.000Z,11004
2023-03-30T16:33:36.000Z,8556
2023-03-30T16:34:52.000Z,6700
2023-03-30T16:36:08.000Z,5488
2023-03-30T16:37:24.000Z,4984
2023-03-30T16:38:40.000Z,4808
2023-03-30T16:39:56.000Z,5160
2023-03-30T16:41:12.000Z,5504
2023-03-30T16:42:28.000Z,5380
2023-03-30T16:43:44.000Z,5176
2023-03-30T16:45:01.000Z,3428
2023-03-30T16:46:17.000Z,3480
2023-03-30T16:47:33.000Z,2528
2023-03-30T16:48:49.000Z,3328
2023-03-30T16:50:05.000Z,3792
2023-03-30T16:51:22.000Z,3716
2023-03-30T16:52:38.000Z,4016
2023-03-30T16:53:54.000Z,3624
2023-03-30T16:55:09.000Z,4440
2023-03-30T16:56:25.000Z,3644
2023-03-30T16:57:42.000Z,3172
2023-03-30T16:58:58.000Z,2652
2023-03-30T17:00:14.000Z,2096
2023-03-30T17:01:30.000Z,1676
2023-03-30T17:02:46.000Z,1520
2023-03-30T17:04:02.000Z,1420
2023-03-30T17:05:19.000Z,1320
2023-03-30T17:06:35.000Z,1204
2023-03-30T17:07:51.000Z,1112
2023-03-30T17:09:07.000Z,980
2023-03-30T17:10:23.000Z,924
2023-03-30T17:11:39.000Z,880
2023-03-30T17:12:55.000Z,796
2023-03-30T17:14:11.000Z,720
2023-03-30T17:15:27.000Z,628
2023-03-30T17:16:43.000Z,552
2023-03-30T17:18:00.000Z,516